sensor_id;sensor_type;location;lat;lon;timestamp;pressure;altitude;pressure_sealevel;temperature
20092;BMP180;10205;49.678;6.560;2023-04-01T00:01:51;98245.00;;;14.40
20092;BMP180;10205;49.678;6.560;2023-04-01T00:04:18;98250.00;;;14.50
20092;BMP180;10205;49.678;6.560;2023-04-01T00:06:46;98241.00;;;14.50
20092;BMP180;10205;49.678;6.560;2023-04-01T00:09:14;98244.00;;;14.40
20092;BMP180;10205;49.678;6.560;2023-04-01T00:11:41;98250.00;;;14.40
20092;BMP180;10205;49.678;6.560;2023-04-01T00:14:12;98247.00;;;14.40
20092;BMP180;10205;49.678;6.560;2023-04-01T00:16:39;98245.00;;;14.40
20092;BMP180;10205;49.678;6.560;2023-04-01T00:19:07;98249.00;;;14.40
20092;BMP180;10205;49.678;6.560;2023-04-01T00:21:35;98239.00;;;14.40
20092;BMP180;10205;49.678;6.560;2023-04-01T00:24:03;98242.00;;;14.40
20092;BMP180;10205;49.678;6.560;2023-04-01T00:26:30;98240.00;;;14.40
20092;BMP180;10205;49.678;6.560;2023-04-01T00:28:58;98230.00;;;14.40
20092;BMP180;10205;49.678;6.560;2023-04-01T00:31:28;98217.00;;;14.30
20092;BMP180;10205;49.678;6.560;2023-04-01T00:33:55;98226.00;;;14.40
20092;BMP180;10205;49.678;6.560;2023-04-01T00:36:24;98244.00;;;14.30
20092;BMP180;10205;49.678;6.560;2023-04-01T00:38:51;98234.00;;;14.30
20092;BMP180;10205;49.678;6.560;2023-04-01T00:41:19;98236.00;;;14.30
20092;BMP180;10205;49.678;6.560;2023-04-01T00:43:52;98235.00;;;14.30
20092;BMP180;10205;49.678;6.560;2023-04-01T00:46:20;98233.00;;;14.30
20092;BMP180;10205;49.678;6.560;2023-04-01T00:48:50;98243.00;;;14.30
20092;BMP180;10205;49.678;6.560;2023-04-01T00:51:24;98236.00;;;14.20
20092;BMP180;10205;49.678;6.560;2023-04-01T00:53:55;98241.00;;;14.20
20092;BMP180;10205;49.678;6.560;2023-04-01T00:56:30;98229.00;;;14.20
20092;BMP180;10205;49.678;6.560;2023-04-01T00:59:04;98236.00;;;14.20
20092;BMP180;10205;49.678;6.560;2023-04-01T01:01:35;98233.00;;;14.20
20092;BMP180;10205;49.678;6.560;2023-04-01T01:04:03;98237.00;;;14.20
20092;BMP180;10205;49.678;6.560;2023-04-01T01:06:44;98234.00;;;14.20
20092;BMP180;10205;49.678;6.560;2023-04-01T01:09:28;98230.00;;;14.20
20092;BMP180;10205;49.678;6.560;2023-04-01T01:12:08;98228.00;;;14.20
20092;BMP180;10205;49.678;6.560;2023-04-01T01:14:59;98227.00;;;14.20
20092;BMP180;10205;49.678;6.560;2023-04-01T01:17:42;98225.00;;;14.20
20092;BMP180;10205;49.678;6.560;2023-04-01T01:21:07;98209.00;;;14.10
20092;BMP180;10205;49.678;6.560;2023-04-01T01:24:12;98216.00;;;14.10
20092;BMP180;10205;49.678;6.560;2023-04-01T01:26:54;98208.00;;;14.10
20092;BMP180;10205;49.678;6.560;2023-04-01T01:29:42;98207.00;;;14.10
20092;BMP180;10205;49.678;6.560;2023-04-01T01:32:36;98206.00;;;14.10
20092;BMP180;10205;49.678;6.560;2023-04-01T01:35:19;98209.00;;;14.10
20092;BMP180;10205;49.678;6.560;2023-04-01T01:37:52;98200.00;;;14.10
20092;BMP180;10205;49.678;6.560;2023-04-01T01:40:21;98202.00;;;14.10
20092;BMP180;10205;49.678;6.560;2023-04-01T01:42:56;98203.00;;;14.10
20092;BMP180;10205;49.678;6.560;2023-04-01T01:45:27;98194.00;;;14.10
20092;BMP180;10205;49.678;6.560;2023-04-01T01:47:56;98203.00;;;14.10
20092;BMP180;10205;49.678;6.560;2023-04-01T01:50:26;98214.00;;;14.10
20092;BMP180;10205;49.678;6.560;2023-04-01T01:53:03;98201.00;;;14.10
20092;BMP180;10205;49.678;6.560;2023-04-01T01:55:32;98207.00;;;14.10
20092;BMP180;10205;49.678;6.560;2023-04-01T01:58:06;98206.00;;;14.10
20092;BMP180;10205;49.678;6.560;2023-04-01T02:00:36;98206.00;;;14.10
20092;BMP180;10205;49.678;6.560;2023-04-01T02:03:05;98202.00;;;14.10
20092;BMP180;10205;49.678;6.560;2023-04-01T02:05:34;98206.00;;;14.10
20092;BMP180;10205;49.678;6.560;2023-04-01T02:08:08;98210.00;;;14.10
20092;BMP180;10205;49.678;6.560;2023-04-01T02:10:41;98205.00;;;14.10
20092;BMP180;10205;49.678;6.560;2023-04-01T02:13:17;98206.00;;;14.10
20092;BMP180;10205;49.678;6.560;2023-04-01T02:15:49;98204.00;;;14.00
20092;BMP180;10205;49.678;6.560;2023-04-01T02:18:22;98222.00;;;14.00
20092;BMP180;10205;49.678;6.560;2023-04-01T02:20:51;98215.00;;;14.00
20092;BMP180;10205;49.678;6.560;2023-04-01T02:23:20;98221.00;;;14.00
20092;BMP180;10205;49.678;6.560;2023-04-01T02:25:47;98214.00;;;14.00
20092;BMP180;10205;49.678;6.560;2023-04-01T02:28:17;98225.00;;;14.00
20092;BMP180;10205;49.678;6.560;2023-04-01T02:30:49;98215.00;;;14.00
20092;BMP180;10205;49.678;6.560;2023-04-01T02:33:18;98204.00;;;14.00
20092;BMP180;10205;49.678;6.560;2023-04-01T02:35:46;98212.00;;;14.00
20092;BMP180;10205;49.678;6.560;2023-04-01T02:38:15;98203.00;;;14.00
20092;BMP180;10205;49.678;6.560;2023-04-01T02:40:46;98208.00;;;14.00
20092;BMP180;10205;49.678;6.560;2023-04-01T02:43:14;98212.00;;;13.90
20092;BMP180;10205;49.678;6.560;2023-04-01T02:45:42;98211.00;;;13.90
20092;BMP180;10205;49.678;6.560;2023-04-01T02:48:09;98206.00;;;13.90
20092;BMP180;10205;49.678;6.560;2023-04-01T02:50:36;98220.00;;;13.90
20092;BMP180;10205;49.678;6.560;2023-04-01T02:53:03;98208.00;;;13.90
20092;BMP180;10205;49.678;6.560;2023-04-01T02:55:33;98209.00;;;13.90
20092;BMP180;10205;49.678;6.560;2023-04-01T02:58:01;98200.00;;;13.90
20092;BMP180;10205;49.678;6.560;2023-04-01T03:00:29;98207.00;;;13.90
20092;BMP180;10205;49.678;6.560;2023-04-01T03:02:56;98207.00;;;13.90
20092;BMP180;10205;49.678;6.560;2023-04-01T03:05:23;98197.00;;;13.90
20092;BMP180;10205;49.678;6.560;2023-04-01T03:07:51;98186.00;;;13.80
20092;BMP180;10205;49.678;6.560;2023-04-01T03:10:18;98196.00;;;13.80
20092;BMP180;10205;49.678;6.560;2023-04-01T03:12:47;98199.00;;;13.80
20092;BMP180;10205;49.678;6.560;2023-04-01T03:15:14;98198.00;;;13.80
20092;BMP180;10205;49.678;6.560;2023-04-01T03:17:42;98201.00;;;13.80
20092;BMP180;10205;49.678;6.560;2023-04-01T03:20:11;98193.00;;;13.80
20092;BMP180;10205;49.678;6.560;2023-04-01T03:22:38;98200.00;;;13.80
20092;BMP180;10205;49.678;6.560;2023-04-01T03:25:08;98186.00;;;13.80
20092;BMP180;10205;49.678;6.560;2023-04-01T03:27:35;98192.00;;;13.80
20092;BMP180;10205;49.678;6.560;2023-04-01T03:30:05;98186.00;;;13.80
20092;BMP180;10205;49.678;6.560;2023-04-01T03:32:33;98182.00;;;13.70
20092;BMP180;10205;49.678;6.560;2023-04-01T03:35:01;98201.00;;;13.70
20092;BMP180;10205;49.678;6.560;2023-04-01T03:37:28;98200.00;;;13.70
20092;BMP180;10205;49.678;6.560;2023-04-01T03:39:55;98183.00;;;13.70
20092;BMP180;10205;49.678;6.560;2023-04-01T03:42:22;98186.00;;;13.70
20092;BMP180;10205;49.678;6.560;2023-04-01T03:44:49;98190.00;;;13.70
20092;BMP180;10205;49.678;6.560;2023-04-01T03:47:18;98186.00;;;13.70
20092;BMP180;10205;49.678;6.560;2023-04-01T03:49:45;98178.00;;;13.70
20092;BMP180;10205;49.678;6.560;2023-04-01T03:52:12;98177.00;;;13.70
20092;BMP180;10205;49.678;6.560;2023-04-01T03:54:39;98173.00;;;13.60
20092;BMP180;10205;49.678;6.560;2023-04-01T03:57:07;98170.00;;;13.60
20092;BMP180;10205;49.678;6.560;2023-04-01T03:59:34;98165.00;;;13.60
20092;BMP180;10205;49.678;6.560;2023-04-01T04:02:02;98165.00;;;13.60
20092;BMP180;10205;49.678;6.560;2023-04-01T04:04:30;98186.00;;;13.60
20092;BMP180;10205;49.678;6.560;2023-04-01T04:06:58;98173.00;;;13.60
20092;BMP180;10205;49.678;6.560;2023-04-01T04:09:25;98165.00;;;13.60
20092;BMP180;10205;49.678;6.560;2023-04-01T04:11:52;98171.00;;;13.60
20092;BMP180;10205;49.678;6.560;2023-04-01T04:14:19;98177.00;;;13.60
20092;BMP180;10205;49.678;6.560;2023-04-01T04:16:47;98175.00;;;13.60
20092;BMP180;10205;49.678;6.560;2023-04-01T04:19:14;98167.00;;;13.60
20092;BMP180;10205;49.678;6.560;2023-04-01T04:21:43;98175.00;;;13.60
20092;BMP180;10205;49.678;6.560;2023-04-01T04:24:10;98163.00;;;13.60
20092;BMP180;10205;49.678;6.560;2023-04-01T04:26:37;98167.00;;;13.60
20092;BMP180;10205;49.678;6.560;2023-04-01T04:29:04;98181.00;;;13.60
20092;BMP180;10205;49.678;6.560;2023-04-01T04:31:33;98165.00;;;13.60
20092;BMP180;10205;49.678;6.560;2023-04-01T04:34:01;98166.00;;;13.60
20092;BMP180;10205;49.678;6.560;2023-04-01T04:36:28;98171.00;;;13.60
20092;BMP180;10205;49.678;6.560;2023-04-01T04:38:57;98176.00;;;13.60
20092;BMP180;10205;49.678;6.560;2023-04-01T04:41:27;98172.00;;;13.60
20092;BMP180;10205;49.678;6.560;2023-04-01T04:43:56;98170.00;;;13.60
20092;BMP180;10205;49.678;6.560;2023-04-01T04:46:24;98178.00;;;13.60
20092;BMP180;10205;49.678;6.560;2023-04-01T04:48:51;98185.00;;;13.50
20092;BMP180;10205;49.678;6.560;2023-04-01T04:51:20;98175.00;;;13.50
20092;BMP180;10205;49.678;6.560;2023-04-01T04:53:48;98182.00;;;13.50
20092;BMP180;10205;49.678;6.560;2023-04-01T04:56:21;98194.00;;;13.50
20092;BMP180;10205;49.678;6.560;2023-04-01T04:58:48;98191.00;;;13.50
20092;BMP180;10205;49.678;6.560;2023-04-01T05:01:17;98192.00;;;13.50
20092;BMP180;10205;49.678;6.560;2023-04-01T05:03:45;98188.00;;;13.50
20092;BMP180;10205;49.678;6.560;2023-04-01T05:06:14;98191.00;;;13.50
20092;BMP180;10205;49.678;6.560;2023-04-01T05:08:44;98196.00;;;13.50
20092;BMP180;10205;49.678;6.560;2023-04-01T05:11:14;98193.00;;;13.50
20092;BMP180;10205;49.678;6.560;2023-04-01T05:13:44;98193.00;;;13.50
20092;BMP180;10205;49.678;6.560;2023-04-01T05:16:14;98182.00;;;13.50
20092;BMP180;10205;49.678;6.560;2023-04-01T05:18:42;98198.00;;;13.50
20092;BMP180;10205;49.678;6.560;2023-04-01T05:21:11;98191.00;;;13.50
20092;BMP180;10205;49.678;6.560;2023-04-01T05:23:38;98188.00;;;13.50
20092;BMP180;10205;49.678;6.560;2023-04-01T05:26:07;98189.00;;;13.50
20092;BMP180;10205;49.678;6.560;2023-04-01T05:28:35;98198.00;;;13.50
20092;BMP180;10205;49.678;6.560;2023-04-01T05:31:04;98189.00;;;13.50
20092;BMP180;10205;49.678;6.560;2023-04-01T05:33:33;98196.00;;;13.50
20092;BMP180;10205;49.678;6.560;2023-04-01T05:36:07;98186.00;;;13.50
20092;BMP180;10205;49.678;6.560;2023-04-01T05:38:35;98194.00;;;13.50
20092;BMP180;10205;49.678;6.560;2023-04-01T05:41:03;98198.00;;;13.50
20092;BMP180;10205;49.678;6.560;2023-04-01T05:43:31;98210.00;;;13.50
20092;BMP180;10205;49.678;6.560;2023-04-01T05:45:58;98194.00;;;13.50
20092;BMP180;10205;49.678;6.560;2023-04-01T05:48:26;98201.00;;;13.50
20092;BMP180;10205;49.678;6.560;2023-04-01T05:50:53;98201.00;;;13.50
20092;BMP180;10205;49.678;6.560;2023-04-01T05:53:21;98200.00;;;13.50
20092;BMP180;10205;49.678;6.560;2023-04-01T05:55:48;98197.00;;;13.50
20092;BMP180;10205;49.678;6.560;2023-04-01T05:58:15;98192.00;;;13.50
20092;BMP180;10205;49.678;6.560;2023-04-01T06:00:43;98204.00;;;13.50
20092;BMP180;10205;49.678;6.560;2023-04-01T06:03:10;98205.00;;;13.50
20092;BMP180;10205;49.678;6.560;2023-04-01T06:05:43;98207.00;;;13.50
20092;BMP180;10205;49.678;6.560;2023-04-01T06:08:13;98207.00;;;13.50
20092;BMP180;10205;49.678;6.560;2023-04-01T06:10:58;98216.00;;;13.50
20092;BMP180;10205;49.678;6.560;2023-04-01T06:13:46;98212.00;;;13.50
20092;BMP180;10205;49.678;6.560;2023-04-01T06:16:29;98205.00;;;13.50
20092;BMP180;10205;49.678;6.560;2023-04-01T06:19:31;98205.00;;;13.50
20092;BMP180;10205;49.678;6.560;2023-04-01T06:22:34;98213.00;;;13.50
20092;BMP180;10205;49.678;6.560;2023-04-01T06:25:33;98213.00;;;13.50
20092;BMP180;10205;49.678;6.560;2023-04-01T06:28:27;98207.00;;;13.50
20092;BMP180;10205;49.678;6.560;2023-04-01T06:31:04;98223.00;;;13.40
20092;BMP180;10205;49.678;6.560;2023-04-01T06:33:52;98218.00;;;13.50
20092;BMP180;10205;49.678;6.560;2023-04-01T06:36:50;98217.00;;;13.50
20092;BMP180;10205;49.678;6.560;2023-04-01T06:42:50;98222.00;;;13.40
20092;BMP180;10205;49.678;6.560;2023-04-01T06:45:32;98233.00;;;13.50
20092;BMP180;10205;49.678;6.560;2023-04-01T06:48:27;98233.00;;;13.50
20092;BMP180;10205;49.678;6.560;2023-04-01T06:51:10;98233.00;;;13.50
20092;BMP180;10205;49.678;6.560;2023-04-01T06:53:54;98234.00;;;13.50
20092;BMP180;10205;49.678;6.560;2023-04-01T06:56:27;98234.00;;;13.50
20092;BMP180;10205;49.678;6.560;2023-04-01T06:58:59;98232.00;;;13.50
20092;BMP180;10205;49.678;6.560;2023-04-01T07:01:34;98234.00;;;13.50
20092;BMP180;10205;49.678;6.560;2023-04-01T07:04:09;98233.00;;;13.50
20092;BMP180;10205;49.678;6.560;2023-04-01T07:06:43;98240.00;;;13.50
20092;BMP180;10205;49.678;6.560;2023-04-01T07:09:26;98246.00;;;13.50
20092;BMP180;10205;49.678;6.560;2023-04-01T07:12:02;98243.00;;;13.60
20092;BMP180;10205;49.678;6.560;2023-04-01T07:14:35;98240.00;;;13.60
20092;BMP180;10205;49.678;6.560;2023-04-01T07:17:08;98249.00;;;13.60
20092;BMP180;10205;49.678;6.560;2023-04-01T07:19:47;98255.00;;;13.60
20092;BMP180;10205;49.678;6.560;2023-04-01T07:22:28;98252.00;;;13.60
20092;BMP180;10205;49.678;6.560;2023-04-01T07:25:02;98254.00;;;13.60
20092;BMP180;10205;49.678;6.560;2023-04-01T07:27:31;98262.00;;;13.60
20092;BMP180;10205;49.678;6.560;2023-04-01T07:30:00;98259.00;;;13.60
20092;BMP180;10205;49.678;6.560;2023-04-01T07:32:40;98260.00;;;13.60
20092;BMP180;10205;49.678;6.560;2023-04-01T07:35:23;98267.00;;;13.60
20092;BMP180;10205;49.678;6.560;2023-04-01T07:38:14;98267.00;;;13.60
20092;BMP180;10205;49.678;6.560;2023-04-01T07:40:53;98278.00;;;13.60
20092;BMP180;10205;49.678;6.560;2023-04-01T07:43:53;98278.00;;;13.70
20092;BMP180;10205;49.678;6.560;2023-04-01T07:46:38;98284.00;;;13.70
20092;BMP180;10205;49.678;6.560;2023-04-01T07:49:14;98280.00;;;13.70
20092;BMP180;10205;49.678;6.560;2023-04-01T07:51:52;98274.00;;;13.70
20092;BMP180;10205;49.678;6.560;2023-04-01T07:54:34;98281.00;;;13.70
20092;BMP180;10205;49.678;6.560;2023-04-01T07:57:12;98285.00;;;13.70
20092;BMP180;10205;49.678;6.560;2023-04-01T07:59:56;98286.00;;;13.80
20092;BMP180;10205;49.678;6.560;2023-04-01T08:02:38;98289.00;;;13.80
20092;BMP180;10205;49.678;6.560;2023-04-01T08:05:19;98296.00;;;13.80
20092;BMP180;10205;49.678;6.560;2023-04-01T08:08:01;98292.00;;;13.80
20092;BMP180;10205;49.678;6.560;2023-04-01T08:10:40;98298.00;;;13.80
20092;BMP180;10205;49.678;6.560;2023-04-01T08:13:24;98297.00;;;13.80
20092;BMP180;10205;49.678;6.560;2023-04-01T08:16:06;98298.00;;;13.80
20092;BMP180;10205;49.678;6.560;2023-04-01T08:18:44;98300.00;;;13.90
20092;BMP180;10205;49.678;6.560;2023-04-01T08:21:19;98299.00;;;13.90
20092;BMP180;10205;49.678;6.560;2023-04-01T08:23:52;98300.00;;;13.90
20092;BMP180;10205;49.678;6.560;2023-04-01T08:26:32;98306.00;;;13.90
20092;BMP180;10205;49.678;6.560;2023-04-01T08:29:09;98311.00;;;13.90
20092;BMP180;10205;49.678;6.560;2023-04-01T08:31:48;98311.00;;;13.90
20092;BMP180;10205;49.678;6.560;2023-04-01T08:34:24;98305.00;;;13.90
20092;BMP180;10205;49.678;6.560;2023-04-01T08:36:58;98318.00;;;13.90
20092;BMP180;10205;49.678;6.560;2023-04-01T08:39:33;98323.00;;;14.00
20092;BMP180;10205;49.678;6.560;2023-04-01T08:42:37;98310.00;;;14.00
20092;BMP180;10205;49.678;6.560;2023-04-01T08:45:24;98322.00;;;13.90
20092;BMP180;10205;49.678;6.560;2023-04-01T08:48:19;98326.00;;;14.00
20092;BMP180;10205;49.678;6.560;2023-04-01T08:54:19;98323.00;;;14.00
20092;BMP180;10205;49.678;6.560;2023-04-01T08:57:01;98327.00;;;14.00
20092;BMP180;10205;49.678;6.560;2023-04-01T09:00:04;98329.00;;;14.00
20092;BMP180;10205;49.678;6.560;2023-04-01T09:03:19;98329.00;;;14.10
20092;BMP180;10205;49.678;6.560;2023-04-01T09:06:35;98311.00;;;14.10
20092;BMP180;10205;49.678;6.560;2023-04-01T09:09:49;98322.00;;;14.10
20092;BMP180;10205;49.678;6.560;2023-04-01T09:12:41;98325.00;;;14.10
20092;BMP180;10205;49.678;6.560;2023-04-01T09:15:51;98326.00;;;14.10
20092;BMP180;10205;49.678;6.560;2023-04-01T09:22:25;98334.00;;;14.20
20092;BMP180;10205;49.678;6.560;2023-04-01T09:25:21;98312.00;;;14.20
20092;BMP180;10205;49.678;6.560;2023-04-01T09:27:57;98332.00;;;14.20
20092;BMP180;10205;49.678;6.560;2023-04-01T09:31:04;98330.00;;;14.20
20092;BMP180;10205;49.678;6.560;2023-04-01T09:34:27;98333.00;;;14.30
20092;BMP180;10205;49.678;6.560;2023-04-01T09:37:18;98339.00;;;14.30
20092;BMP180;10205;49.678;6.560;2023-04-01T09:40:09;98329.00;;;14.30
20092;BMP180;10205;49.678;6.560;2023-04-01T09:42:45;98336.00;;;14.30
20092;BMP180;10205;49.678;6.560;2023-04-01T09:45:41;98362.00;;;14.30
20092;BMP180;10205;49.678;6.560;2023-04-01T09:48:24;98338.00;;;14.30
20092;BMP180;10205;49.678;6.560;2023-04-01T09:51:08;98350.00;;;14.30
20092;BMP180;10205;49.678;6.560;2023-04-01T09:54:01;98348.00;;;14.40
20092;BMP180;10205;49.678;6.560;2023-04-01T09:57:17;98357.00;;;14.40
20092;BMP180;10205;49.678;6.560;2023-04-01T10:00:35;98356.00;;;14.40
20092;BMP180;10205;49.678;6.560;2023-04-01T10:06:50;98358.00;;;14.40
20092;BMP180;10205;49.678;6.560;2023-04-01T10:10:05;98363.00;;;14.50
20092;BMP180;10205;49.678;6.560;2023-04-01T10:13:36;98365.00;;;14.50
20092;BMP180;10205;49.678;6.560;2023-04-01T10:16:45;98377.00;;;14.50
20092;BMP180;10205;49.678;6.560;2023-04-01T10:23:27;98374.00;;;14.60
20092;BMP180;10205;49.678;6.560;2023-04-01T10:26:43;98386.00;;;14.60
20092;BMP180;10205;49.678;6.560;2023-04-01T10:30:00;98372.00;;;14.60
20092;BMP180;10205;49.678;6.560;2023-04-01T10:46:26;98381.00;;;14.80
20092;BMP180;10205;49.678;6.560;2023-04-01T10:50:05;98375.00;;;14.80
20092;BMP180;10205;49.678;6.560;2023-04-01T10:53:18;98388.00;;;14.80
20092;BMP180;10205;49.678;6.560;2023-04-01T10:56:34;98381.00;;;14.80
20092;BMP180;10205;49.678;6.560;2023-04-01T10:59:55;98372.00;;;14.90
20092;BMP180;10205;49.678;6.560;2023-04-01T11:19:53;98386.00;;;15.10
20092;BMP180;10205;49.678;6.560;2023-04-01T11:22:56;98375.00;;;15.10
20092;BMP180;10205;49.678;6.560;2023-04-01T11:25:49;98376.00;;;15.20
20092;BMP180;10205;49.678;6.560;2023-04-01T11:29:18;98381.00;;;15.20
20092;BMP180;10205;49.678;6.560;2023-04-01T11:32:00;98387.00;;;15.20
20092;BMP180;10205;49.678;6.560;2023-04-01T11:34:50;98389.00;;;15.30
20092;BMP180;10205;49.678;6.560;2023-04-01T11:37:38;98386.00;;;15.30
20092;BMP180;10205;49.678;6.560;2023-04-01T11:40:20;98386.00;;;15.30
20092;BMP180;10205;49.678;6.560;2023-04-01T11:43:01;98388.00;;;15.40
20092;BMP180;10205;49.678;6.560;2023-04-01T11:45:41;98395.00;;;15.40
20092;BMP180;10205;49.678;6.560;2023-04-01T11:48:37;98400.00;;;15.50
20092;BMP180;10205;49.678;6.560;2023-04-01T11:54:39;98411.00;;;15.50
20092;BMP180;10205;49.678;6.560;2023-04-01T11:57:43;98416.00;;;15.50
20092;BMP180;10205;49.678;6.560;2023-04-01T12:00:46;98420.00;;;15.50
20092;BMP180;10205;49.678;6.560;2023-04-01T12:03:38;98426.00;;;15.50
20092;BMP180;10205;49.678;6.560;2023-04-01T12:06:17;98441.00;;;15.50
20092;BMP180;10205;49.678;6.560;2023-04-01T12:08:57;98447.00;;;15.60
20092;BMP180;10205;49.678;6.560;2023-04-01T12:11:41;98450.00;;;15.60
20092;BMP180;10205;49.678;6.560;2023-04-01T12:14:21;98456.00;;;15.60
20092;BMP180;10205;49.678;6.560;2023-04-01T12:17:07;98452.00;;;15.60
20092;BMP180;10205;49.678;6.560;2023-04-01T12:19:46;98451.00;;;15.60
20092;BMP180;10205;49.678;6.560;2023-04-01T12:22:39;98471.00;;;15.60
20092;BMP180;10205;49.678;6.560;2023-04-01T12:25:52;98454.00;;;15.60
20092;BMP180;10205;49.678;6.560;2023-04-01T12:28:29;98459.00;;;15.60
20092;BMP180;10205;49.678;6.560;2023-04-01T12:31:16;98451.00;;;15.60
20092;BMP180;10205;49.678;6.560;2023-04-01T12:34:00;98445.00;;;15.60
20092;BMP180;10205;49.678;6.560;2023-04-01T12:36:56;98452.00;;;15.70
20092;BMP180;10205;49.678;6.560;2023-04-01T12:39:55;98448.00;;;15.70
20092;BMP180;10205;49.678;6.560;2023-04-01T12:42:53;98447.00;;;15.70
20092;BMP180;10205;49.678;6.560;2023-04-01T12:45:32;98450.00;;;15.80
20092;BMP180;10205;49.678;6.560;2023-04-01T12:51:58;98466.00;;;15.80
20092;BMP180;10205;49.678;6.560;2023-04-01T12:55:06;98462.00;;;15.80
20092;BMP180;10205;49.678;6.560;2023-04-01T12:58:15;98457.00;;;15.90
20092;BMP180;10205;49.678;6.560;2023-04-01T13:01:22;98462.00;;;15.90
20092;BMP180;10205;49.678;6.560;2023-04-01T13:04:32;98469.00;;;15.90
20092;BMP180;10205;49.678;6.560;2023-04-01T13:07:34;98479.00;;;15.90
20092;BMP180;10205;49.678;6.560;2023-04-01T13:10:15;98470.00;;;16.00
20092;BMP180;10205;49.678;6.560;2023-04-01T13:16:03;98493.00;;;16.00
20092;BMP180;10205;49.678;6.560;2023-04-01T13:18:49;98489.00;;;16.00
20092;BMP180;10205;49.678;6.560;2023-04-01T13:21:28;98494.00;;;16.10
20092;BMP180;10205;49.678;6.560;2023-04-01T13:24:10;98496.00;;;16.10
20092;BMP180;10205;49.678;6.560;2023-04-01T13:26:54;98497.00;;;16.10
20092;BMP180;10205;49.678;6.560;2023-04-01T13:29:29;98512.00;;;16.10
20092;BMP180;10205;49.678;6.560;2023-04-01T13:32:22;98503.00;;;16.10
20092;BMP180;10205;49.678;6.560;2023-04-01T13:35:11;98515.00;;;16.20
20092;BMP180;10205;49.678;6.560;2023-04-01T13:38:00;98505.00;;;16.10
20092;BMP180;10205;49.678;6.560;2023-04-01T13:40:43;98509.00;;;16.20
20092;BMP180;10205;49.678;6.560;2023-04-01T13:43:23;98517.00;;;16.20
20092;BMP180;10205;49.678;6.560;2023-04-01T13:46:33;98522.00;;;16.20
20092;BMP180;10205;49.678;6.560;2023-04-01T13:52:52;98517.00;;;16.20
20092;BMP180;10205;49.678;6.560;2023-04-01T13:55:45;98511.00;;;16.20
20092;BMP180;10205;49.678;6.560;2023-04-01T13:58:43;98521.00;;;16.20
20092;BMP180;10205;49.678;6.560;2023-04-01T14:01:21;98517.00;;;16.30
20092;BMP180;10205;49.678;6.560;2023-04-01T14:04:34;98531.00;;;16.30
20092;BMP180;10205;49.678;6.560;2023-04-01T14:07:32;98508.00;;;16.30
20092;BMP180;10205;49.678;6.560;2023-04-01T14:10:17;98528.00;;;16.30
20092;BMP180;10205;49.678;6.560;2023-04-01T14:12:57;98525.00;;;16.30
20092;BMP180;10205;49.678;6.560;2023-04-01T14:15:42;98539.00;;;16.30
20092;BMP180;10205;49.678;6.560;2023-04-01T14:18:57;98539.00;;;16.30
20092;BMP180;10205;49.678;6.560;2023-04-01T14:21:38;98545.00;;;16.30
20092;BMP180;10205;49.678;6.560;2023-04-01T14:25:04;98547.00;;;16.30
20092;BMP180;10205;49.678;6.560;2023-04-01T14:27:49;98555.00;;;16.30
20092;BMP180;10205;49.678;6.560;2023-04-01T14:31:04;98547.00;;;16.30
20092;BMP180;10205;49.678;6.560;2023-04-01T14:33:47;98546.00;;;16.30
20092;BMP180;10205;49.678;6.560;2023-04-01T14:37:01;98548.00;;;16.30
20092;BMP180;10205;49.678;6.560;2023-04-01T14:39:57;98559.00;;;16.30
20092;BMP180;10205;49.678;6.560;2023-04-01T14:43:16;98551.00;;;16.30
20092;BMP180;10205;49.678;6.560;2023-04-01T14:46:09;98560.00;;;16.30
20092;BMP180;10205;49.678;6.560;2023-04-01T14:48:53;98558.00;;;16.20
20092;BMP180;10205;49.678;6.560;2023-04-01T14:51:31;98560.00;;;16.20
20092;BMP180;10205;49.678;6.560;2023-04-01T14:54:06;98556.00;;;16.20
20092;BMP180;10205;49.678;6.560;2023-04-01T14:56:38;98574.00;;;16.20
20092;BMP180;10205;49.678;6.560;2023-04-01T14:59:26;98579.00;;;16.20
20092;BMP180;10205;49.678;6.560;2023-04-01T15:02:01;98577.00;;;16.20
20092;BMP180;10205;49.678;6.560;2023-04-01T15:04:54;98565.00;;;16.10
20092;BMP180;10205;49.678;6.560;2023-04-01T15:08:00;98577.00;;;16.10
20092;BMP180;10205;49.678;6.560;2023-04-01T15:17:20;98571.00;;;16.10
20092;BMP180;10205;49.678;6.560;2023-04-01T15:20:17;98578.00;;;16.10
20092;BMP180;10205;49.678;6.560;2023-04-01T15:23:03;98582.00;;;16.00
20092;BMP180;10205;49.678;6.560;2023-04-01T15:25:57;98585.00;;;16.00
20092;BMP180;10205;49.678;6.560;2023-04-01T15:28:37;98586.00;;;16.00
20092;BMP180;10205;49.678;6.560;2023-04-01T15:31:15;98586.00;;;16.00
20092;BMP180;10205;49.678;6.560;2023-04-01T15:34:09;98594.00;;;16.00
20092;BMP180;10205;49.678;6.560;2023-04-01T15:36:50;98602.00;;;16.00
20092;BMP180;10205;49.678;6.560;2023-04-01T15:39:24;98599.00;;;16.00
20092;BMP180;10205;49.678;6.560;2023-04-01T15:42:16;98609.00;;;16.00
20092;BMP180;10205;49.678;6.560;2023-04-01T15:45:01;98597.00;;;16.10
20092;BMP180;10205;49.678;6.560;2023-04-01T15:47:45;98600.00;;;16.10
20092;BMP180;10205;49.678;6.560;2023-04-01T15:50:48;98606.00;;;16.10
20092;BMP180;10205;49.678;6.560;2023-04-01T15:56:56;98608.00;;;16.10
20092;BMP180;10205;49.678;6.560;2023-04-01T16:03:22;98616.00;;;16.20
20092;BMP180;10205;49.678;6.560;2023-04-01T16:06:21;98620.00;;;16.20
20092;BMP180;10205;49.678;6.560;2023-04-01T16:09:32;98628.00;;;16.20
20092;BMP180;10205;49.678;6.560;2023-04-01T16:12:15;98616.00;;;16.20
20092;BMP180;10205;49.678;6.560;2023-04-01T16:15:01;98609.00;;;16.30
20092;BMP180;10205;49.678;6.560;2023-04-01T16:17:52;98609.00;;;16.20
20092;BMP180;10205;49.678;6.560;2023-04-01T16:20:27;98629.00;;;16.30
20092;BMP180;10205;49.678;6.560;2023-04-01T16:23:14;98624.00;;;16.40
20092;BMP180;10205;49.678;6.560;2023-04-01T16:25:51;98623.00;;;16.40
20092;BMP180;10205;49.678;6.560;2023-04-01T16:28:24;98628.00;;;16.50
20092;BMP180;10205;49.678;6.560;2023-04-01T16:30:59;98635.00;;;16.50
20092;BMP180;10205;49.678;6.560;2023-04-01T16:33:41;98633.00;;;16.50
20092;BMP180;10205;49.678;6.560;2023-04-01T16:36:24;98648.00;;;16.60
20092;BMP180;10205;49.678;6.560;2023-04-01T16:39:11;98646.00;;;16.60
20092;BMP180;10205;49.678;6.560;2023-04-01T16:41:49;98646.00;;;16.60
20092;BMP180;10205;49.678;6.560;2023-04-01T16:44:23;98648.00;;;16.60
20092;BMP180;10205;49.678;6.560;2023-04-01T16:46:52;98651.00;;;16.60